sensor_id;sensor_type;location;lat;lon;timestamp;P1;durP1;ratioP1;P2;durP2;ratioP2
24685;SDS011;12804;51.176;4.452;2023-04-07T00:00:38;15.35;;;6.30;;
24685;SDS011;12804;51.176;4.452;2023-04-07T00:03:04;15.07;;;6.80;;
24685;SDS011;12804;51.176;4.452;2023-04-07T00:05:31;13.00;;;7.22;;
24685;SDS011;12804;51.176;4.452;2023-04-07T00:07:57;16.00;;;7.30;;
24685;SDS011;12804;51.176;4.452;2023-04-07T00:10:23;16.27;;;7.10;;
24685;SDS011;12804;51.176;4.452;2023-04-07T00:12:49;13.60;;;6.90;;
24685;SDS011;12804;51.176;4.452;2023-04-07T00:15:15;14.45;;;7.95;;
24685;SDS011;12804;51.176;4.452;2023-04-07T00:17:41;20.38;;;8.40;;
24685;SDS011;12804;51.176;4.452;2023-04-07T00:20:07;17.63;;;8.13;;
24685;SDS011;12804;51.176;4.452;2023-04-07T00:22:33;18.13;;;10.27;;
24685;SDS011;12804;51.176;4.452;2023-04-07T00:24:59;17.83;;;10.13;;
24685;SDS011;12804;51.176;4.452;2023-04-07T00:27:25;23.88;;;10.95;;
24685;SDS011;12804;51.176;4.452;2023-04-07T00:29:51;28.50;;;11.10;;
24685;SDS011;12804;51.176;4.452;2023-04-07T00:32:20;22.52;;;11.77;;
24685;SDS011;12804;51.176;4.452;2023-04-07T00:34:46;24.13;;;10.80;;
24685;SDS011;12804;51.176;4.452;2023-04-07T00:37:12;19.60;;;11.25;;
24685;SDS011;12804;51.176;4.452;2023-04-07T00:39:37;20.90;;;11.15;;
24685;SDS011;12804;51.176;4.452;2023-04-07T00:42:03;16.85;;;10.38;;
24685;SDS011;12804;51.176;4.452;2023-04-07T00:44:31;19.52;;;10.75;;
24685;SDS011;12804;51.176;4.452;2023-04-07T00:46:58;23.02;;;10.43;;
24685;SDS011;12804;51.176;4.452;2023-04-07T00:49:24;19.85;;;10.52;;
24685;SDS011;12804;51.176;4.452;2023-04-07T00:51:53;19.33;;;10.32;;
24685;SDS011;12804;51.176;4.452;2023-04-07T00:54:20;16.55;;;9.10;;
24685;SDS011;12804;51.176;4.452;2023-04-07T00:56:48;17.70;;;10.23;;
24685;SDS011;12804;51.176;4.452;2023-04-07T00:59:14;19.33;;;9.75;;
24685;SDS011;12804;51.176;4.452;2023-04-07T01:01:51;19.98;;;10.07;;
24685;SDS011;12804;51.176;4.452;2023-04-07T01:07:14;17.52;;;9.35;;
24685;SDS011;12804;51.176;4.452;2023-04-07T01:10:00;14.70;;;9.45;;
24685;SDS011;12804;51.176;4.452;2023-04-07T01:12:46;16.60;;;8.90;;
24685;SDS011;12804;51.176;4.452;2023-04-07T01:15:22;20.05;;;9.77;;
24685;SDS011;12804;51.176;4.452;2023-04-07T01:18:12;18.17;;;10.98;;
24685;SDS011;12804;51.176;4.452;2023-04-07T01:20:44;22.73;;;10.85;;
24685;SDS011;12804;51.176;4.452;2023-04-07T01:23:16;19.13;;;10.43;;
24685;SDS011;12804;51.176;4.452;2023-04-07T01:25:53;21.63;;;10.93;;
24685;SDS011;12804;51.176;4.452;2023-04-07T01:31:28;17.33;;;11.65;;
24685;SDS011;12804;51.176;4.452;2023-04-07T01:33:57;25.17;;;12.13;;
24685;SDS011;12804;51.176;4.452;2023-04-07T01:36:25;21.27;;;12.20;;
24685;SDS011;12804;51.176;4.452;2023-04-07T01:38:52;21.38;;;12.23;;
24685;SDS011;12804;51.176;4.452;2023-04-07T01:41:19;22.20;;;12.30;;
24685;SDS011;12804;51.176;4.452;2023-04-07T01:43:47;20.27;;;12.48;;
24685;SDS011;12804;51.176;4.452;2023-04-07T01:46:14;23.73;;;12.07;;
24685;SDS011;12804;51.176;4.452;2023-04-07T01:48:40;19.88;;;12.63;;
24685;SDS011;12804;51.176;4.452;2023-04-07T01:51:07;25.40;;;13.23;;
24685;SDS011;12804;51.176;4.452;2023-04-07T01:53:36;24.38;;;13.80;;
24685;SDS011;12804;51.176;4.452;2023-04-07T01:56:03;24.48;;;13.43;;
24685;SDS011;12804;51.176;4.452;2023-04-07T01:58:32;27.63;;;15.00;;
24685;SDS011;12804;51.176;4.452;2023-04-07T02:00:58;27.80;;;14.68;;
24685;SDS011;12804;51.176;4.452;2023-04-07T02:03:33;28.00;;;14.02;;
24685;SDS011;12804;51.176;4.452;2023-04-07T02:06:22;24.45;;;14.38;;
24685;SDS011;12804;51.176;4.452;2023-04-07T02:08:54;25.38;;;14.13;;
24685;SDS011;12804;51.176;4.452;2023-04-07T02:11:24;27.67;;;14.48;;
24685;SDS011;12804;51.176;4.452;2023-04-07T02:13:55;28.83;;;15.18;;
24685;SDS011;12804;51.176;4.452;2023-04-07T02:16:21;28.40;;;15.85;;
24685;SDS011;12804;51.176;4.452;2023-04-07T02:18:50;29.52;;;15.35;;
24685;SDS011;12804;51.176;4.452;2023-04-07T02:21:18;30.23;;;15.68;;
24685;SDS011;12804;51.176;4.452;2023-04-07T02:23:45;31.77;;;16.23;;
24685;SDS011;12804;51.176;4.452;2023-04-07T02:26:11;33.47;;;15.93;;
24685;SDS011;12804;51.176;4.452;2023-04-07T02:28:37;31.73;;;16.60;;
24685;SDS011;12804;51.176;4.452;2023-04-07T02:31:03;32.85;;;17.10;;
24685;SDS011;12804;51.176;4.452;2023-04-07T02:33:30;36.60;;;17.25;;
24685;SDS011;12804;51.176;4.452;2023-04-07T02:35:56;30.10;;;16.77;;
24685;SDS011;12804;51.176;4.452;2023-04-07T02:38:22;33.67;;;17.50;;
24685;SDS011;12804;51.176;4.452;2023-04-07T02:40:48;32.17;;;17.00;;
24685;SDS011;12804;51.176;4.452;2023-04-07T02:43:13;30.40;;;17.25;;
24685;SDS011;12804;51.176;4.452;2023-04-07T02:45:41;37.97;;;18.83;;
24685;SDS011;12804;51.176;4.452;2023-04-07T02:48:07;37.53;;;18.63;;
24685;SDS011;12804;51.176;4.452;2023-04-07T02:50:34;37.13;;;19.05;;
24685;SDS011;12804;51.176;4.452;2023-04-07T02:53:00;43.13;;;18.92;;
24685;SDS011;12804;51.176;4.452;2023-04-07T02:55:26;41.08;;;20.00;;
24685;SDS011;12804;51.176;4.452;2023-04-07T02:57:52;35.75;;;18.98;;
24685;SDS011;12804;51.176;4.452;2023-04-07T03:00:32;38.63;;;19.38;;
24685;SDS011;12804;51.176;4.452;2023-04-07T03:03:04;39.08;;;19.10;;
24685;SDS011;12804;51.176;4.452;2023-04-07T03:05:34;40.50;;;20.00;;
24685;SDS011;12804;51.176;4.452;2023-04-07T03:08:01;35.90;;;19.50;;
24685;SDS011;12804;51.176;4.452;2023-04-07T03:10:27;37.38;;;19.00;;
24685;SDS011;12804;51.176;4.452;2023-04-07T03:12:53;38.72;;;19.58;;
24685;SDS011;12804;51.176;4.452;2023-04-07T03:15:19;38.63;;;19.63;;
24685;SDS011;12804;51.176;4.452;2023-04-07T03:17:46;37.95;;;19.15;;
24685;SDS011;12804;51.176;4.452;2023-04-07T03:20:14;38.05;;;18.83;;
24685;SDS011;12804;51.176;4.452;2023-04-07T03:22:41;38.47;;;19.42;;
24685;SDS011;12804;51.176;4.452;2023-04-07T03:25:15;40.05;;;19.17;;
24685;SDS011;12804;51.176;4.452;2023-04-07T03:27:41;36.30;;;18.92;;
24685;SDS011;12804;51.176;4.452;2023-04-07T03:30:09;35.53;;;18.25;;
24685;SDS011;12804;51.176;4.452;2023-04-07T03:32:37;38.67;;;17.25;;
24685;SDS011;12804;51.176;4.452;2023-04-07T03:35:03;39.47;;;17.30;;
24685;SDS011;12804;51.176;4.452;2023-04-07T03:37:29;31.60;;;16.38;;
24685;SDS011;12804;51.176;4.452;2023-04-07T03:39:54;37.28;;;17.35;;
24685;SDS011;12804;51.176;4.452;2023-04-07T03:42:26;34.33;;;16.23;;
24685;SDS011;12804;51.176;4.452;2023-04-07T03:44:58;36.13;;;15.05;;
24685;SDS011;12804;51.176;4.452;2023-04-07T03:47:24;28.67;;;13.70;;
24685;SDS011;12804;51.176;4.452;2023-04-07T03:49:55;29.52;;;14.00;;
24685;SDS011;12804;51.176;4.452;2023-04-07T03:52:21;31.95;;;14.48;;
24685;SDS011;12804;51.176;4.452;2023-04-07T03:54:51;23.70;;;12.88;;
24685;SDS011;12804;51.176;4.452;2023-04-07T03:57:20;25.50;;;12.27;;
24685;SDS011;12804;51.176;4.452;2023-04-07T03:59:47;27.00;;;11.95;;
24685;SDS011;12804;51.176;4.452;2023-04-07T04:02:16;23.88;;;11.27;;
24685;SDS011;12804;51.176;4.452;2023-04-07T04:04:45;21.77;;;10.27;;
24685;SDS011;12804;51.176;4.452;2023-04-07T04:07:12;17.38;;;9.05;;
24685;SDS011;12804;51.176;4.452;2023-04-07T04:09:49;24.83;;;9.88;;
24685;SDS011;12804;51.176;4.452;2023-04-07T04:12:16;16.27;;;8.60;;
24685;SDS011;12804;51.176;4.452;2023-04-07T04:14:52;19.20;;;8.45;;
24685;SDS011;12804;51.176;4.452;2023-04-07T04:17:18;13.80;;;8.10;;
24685;SDS011;12804;51.176;4.452;2023-04-07T04:19:45;20.33;;;8.65;;
24685;SDS011;12804;51.176;4.452;2023-04-07T04:22:19;16.88;;;7.90;;
24685;SDS011;12804;51.176;4.452;2023-04-07T04:24:52;14.73;;;6.95;;
24685;SDS011;12804;51.176;4.452;2023-04-07T04:27:20;18.75;;;7.63;;
24685;SDS011;12804;51.176;4.452;2023-04-07T04:29:51;18.48;;;8.10;;
24685;SDS011;12804;51.176;4.452;2023-04-07T04:32:26;18.83;;;7.60;;
24685;SDS011;12804;51.176;4.452;2023-04-07T04:34:52;14.23;;;7.53;;
24685;SDS011;12804;51.176;4.452;2023-04-07T04:37:19;13.73;;;6.68;;
24685;SDS011;12804;51.176;4.452;2023-04-07T04:39:45;15.15;;;6.97;;
24685;SDS011;12804;51.176;4.452;2023-04-07T04:42:13;21.40;;;7.90;;
24685;SDS011;12804;51.176;4.452;2023-04-07T04:44:41;16.98;;;8.82;;
24685;SDS011;12804;51.176;4.452;2023-04-07T04:47:07;20.60;;;9.75;;
24685;SDS011;12804;51.176;4.452;2023-04-07T04:49:35;16.65;;;10.02;;
24685;SDS011;12804;51.176;4.452;2023-04-07T04:52:02;21.88;;;11.48;;
24685;SDS011;12804;51.176;4.452;2023-04-07T04:54:34;23.02;;;10.93;;
24685;SDS011;12804;51.176;4.452;2023-04-07T04:57:00;17.85;;;10.68;;
24685;SDS011;12804;51.176;4.452;2023-04-07T04:59:26;20.45;;;10.90;;
24685;SDS011;12804;51.176;4.452;2023-04-07T05:02:01;21.60;;;10.95;;
24685;SDS011;12804;51.176;4.452;2023-04-07T05:04:27;23.00;;;10.75;;
24685;SDS011;12804;51.176;4.452;2023-04-07T05:09:28;19.75;;;10.70;;
24685;SDS011;12804;51.176;4.452;2023-04-07T05:11:53;24.63;;;11.70;;
24685;SDS011;12804;51.176;4.452;2023-04-07T05:14:21;21.52;;;11.70;;
24685;SDS011;12804;51.176;4.452;2023-04-07T05:16:53;22.10;;;11.90;;
24685;SDS011;12804;51.176;4.452;2023-04-07T05:19:22;22.65;;;12.65;;
24685;SDS011;12804;51.176;4.452;2023-04-07T05:21:51;24.90;;;11.88;;
24685;SDS011;12804;51.176;4.452;2023-04-07T05:24:19;24.02;;;12.38;;
24685;SDS011;12804;51.176;4.452;2023-04-07T05:26:50;23.52;;;11.98;;
24685;SDS011;12804;51.176;4.452;2023-04-07T05:29:16;24.08;;;12.27;;
24685;SDS011;12804;51.176;4.452;2023-04-07T05:31:42;23.40;;;12.93;;
24685;SDS011;12804;51.176;4.452;2023-04-07T05:34:11;23.20;;;12.13;;
24685;SDS011;12804;51.176;4.452;2023-04-07T05:36:43;27.60;;;13.15;;
24685;SDS011;12804;51.176;4.452;2023-04-07T05:39:09;23.58;;;12.25;;
24685;SDS011;12804;51.176;4.452;2023-04-07T05:41:35;22.15;;;11.82;;
24685;SDS011;12804;51.176;4.452;2023-04-07T05:44:01;20.92;;;12.38;;
24685;SDS011;12804;51.176;4.452;2023-04-07T05:46:30;25.88;;;11.85;;
24685;SDS011;12804;51.176;4.452;2023-04-07T05:48:56;18.92;;;11.23;;
24685;SDS011;12804;51.176;4.452;2023-04-07T05:51:24;21.38;;;11.48;;
24685;SDS011;12804;51.176;4.452;2023-04-07T05:53:53;23.33;;;12.23;;
24685;SDS011;12804;51.176;4.452;2023-04-07T05:56:21;24.65;;;11.95;;
24685;SDS011;12804;51.176;4.452;2023-04-07T05:58:47;26.20;;;12.80;;
24685;SDS011;12804;51.176;4.452;2023-04-07T06:01:14;22.08;;;11.52;;
24685;SDS011;12804;51.176;4.452;2023-04-07T06:03:41;24.98;;;12.18;;
24685;SDS011;12804;51.176;4.452;2023-04-07T06:06:17;22.35;;;11.70;;
24685;SDS011;12804;51.176;4.452;2023-04-07T06:08:44;23.05;;;13.40;;
24685;SDS011;12804;51.176;4.452;2023-04-07T06:11:11;20.85;;;11.32;;
24685;SDS011;12804;51.176;4.452;2023-04-07T06:13:37;21.52;;;11.63;;
24685;SDS011;12804;51.176;4.452;2023-04-07T06:16:03;22.98;;;11.15;;
24685;SDS011;12804;51.176;4.452;2023-04-07T06:18:30;18.77;;;11.05;;
24685;SDS011;12804;51.176;4.452;2023-04-07T06:20:57;19.83;;;11.02;;
24685;SDS011;12804;51.176;4.452;2023-04-07T06:23:24;17.48;;;10.73;;
24685;SDS011;12804;51.176;4.452;2023-04-07T06:25:50;22.13;;;12.75;;
24685;SDS011;12804;51.176;4.452;2023-04-07T06:28:17;23.10;;;12.75;;
24685;SDS011;12804;51.176;4.452;2023-04-07T06:30:44;22.83;;;11.25;;
24685;SDS011;12804;51.176;4.452;2023-04-07T06:33:11;17.42;;;10.98;;
24685;SDS011;12804;51.176;4.452;2023-04-07T06:35:39;16.67;;;10.15;;
24685;SDS011;12804;51.176;4.452;2023-04-07T06:38:05;14.23;;;9.93;;
24685;SDS011;12804;51.176;4.452;2023-04-07T06:40:33;16.17;;;10.25;;
24685;SDS011;12804;51.176;4.452;2023-04-07T06:42:58;15.75;;;9.93;;
24685;SDS011;12804;51.176;4.452;2023-04-07T06:45:36;16.05;;;9.15;;
24685;SDS011;12804;51.176;4.452;2023-04-07T06:48:02;15.45;;;7.50;;
24685;SDS011;12804;51.176;4.452;2023-04-07T06:50:28;10.93;;;6.90;;
24685;SDS011;12804;51.176;4.452;2023-04-07T06:52:54;9.07;;;6.00;;
24685;SDS011;12804;51.176;4.452;2023-04-07T06:55:20;12.70;;;7.85;;
24685;SDS011;12804;51.176;4.452;2023-04-07T06:57:46;11.38;;;7.70;;
24685;SDS011;12804;51.176;4.452;2023-04-07T07:00:11;14.35;;;9.82;;
24685;SDS011;12804;51.176;4.452;2023-04-07T07:02:37;13.88;;;10.15;;
24685;SDS011;12804;51.176;4.452;2023-04-07T07:05:03;18.33;;;10.02;;
24685;SDS011;12804;51.176;4.452;2023-04-07T07:07:30;11.95;;;7.88;;
24685;SDS011;12804;51.176;4.452;2023-04-07T07:09:55;12.27;;;9.43;;
24685;SDS011;12804;51.176;4.452;2023-04-07T07:12:21;12.35;;;8.25;;
24685;SDS011;12804;51.176;4.452;2023-04-07T07:14:47;10.77;;;9.05;;
24685;SDS011;12804;51.176;4.452;2023-04-07T07:17:13;15.30;;;9.57;;
24685;SDS011;12804;51.176;4.452;2023-04-07T07:19:39;9.50;;;7.00;;
24685;SDS011;12804;51.176;4.452;2023-04-07T07:22:04;11.73;;;6.05;;
24685;SDS011;12804;51.176;4.452;2023-04-07T07:24:30;9.60;;;5.13;;
24685;SDS011;12804;51.176;4.452;2023-04-07T07:26:58;10.10;;;4.30;;
24685;SDS011;12804;51.176;4.452;2023-04-07T07:29:25;6.82;;;3.90;;
24685;SDS011;12804;51.176;4.452;2023-04-07T07:31:51;7.53;;;4.00;;
24685;SDS011;12804;51.176;4.452;2023-04-07T07:34:17;4.95;;;3.67;;
24685;SDS011;12804;51.176;4.452;2023-04-07T07:36:43;5.95;;;3.63;;
24685;SDS011;12804;51.176;4.452;2023-04-07T07:39:09;7.88;;;3.45;;
24685;SDS011;12804;51.176;4.452;2023-04-07T07:41:35;6.15;;;3.25;;
24685;SDS011;12804;51.176;4.452;2023-04-07T07:44:01;10.70;;;3.67;;
24685;SDS011;12804;51.176;4.452;2023-04-07T07:46:27;6.70;;;3.35;;
24685;SDS011;12804;51.176;4.452;2023-04-07T07:48:52;3.92;;;2.90;;
24685;SDS011;12804;51.176;4.452;2023-04-07T07:51:18;4.90;;;2.90;;
24685;SDS011;12804;51.176;4.452;2023-04-07T07:53:44;3.45;;;2.75;;
24685;SDS011;12804;51.176;4.452;2023-04-07T07:56:10;5.72;;;2.78;;
24685;SDS011;12804;51.176;4.452;2023-04-07T07:58:37;9.50;;;3.17;;
24685;SDS011;12804;51.176;4.452;2023-04-07T08:01:03;4.03;;;2.55;;
24685;SDS011;12804;51.176;4.452;2023-04-07T08:03:29;5.80;;;2.70;;
24685;SDS011;12804;51.176;4.452;2023-04-07T08:05:54;6.63;;;3.10;;
24685;SDS011;12804;51.176;4.452;2023-04-07T08:08:20;5.68;;;2.90;;
24685;SDS011;12804;51.176;4.452;2023-04-07T08:10:46;6.72;;;2.65;;
24685;SDS011;12804;51.176;4.452;2023-04-07T08:13:13;9.02;;;2.60;;
24685;SDS011;12804;51.176;4.452;2023-04-07T08:15:39;5.88;;;2.58;;
24685;SDS011;12804;51.176;4.452;2023-04-07T08:18:05;4.65;;;2.28;;
24685;SDS011;12804;51.176;4.452;2023-04-07T08:20:31;4.68;;;1.95;;
24685;SDS011;12804;51.176;4.452;2023-04-07T08:22:58;4.18;;;2.28;;
24685;SDS011;12804;51.176;4.452;2023-04-07T08:25:26;3.33;;;2.05;;
24685;SDS011;12804;51.176;4.452;2023-04-07T08:27:52;7.32;;;2.42;;
24685;SDS011;12804;51.176;4.452;2023-04-07T08:30:18;4.88;;;2.00;;
24685;SDS011;12804;51.176;4.452;2023-04-07T08:32:45;6.85;;;2.45;;
24685;SDS011;12804;51.176;4.452;2023-04-07T08:35:11;7.18;;;2.33;;
24685;SDS011;12804;51.176;4.452;2023-04-07T08:37:37;4.95;;;2.10;;
24685;SDS011;12804;51.176;4.452;2023-04-07T08:40:04;9.07;;;2.28;;
24685;SDS011;12804;51.176;4.452;2023-04-07T08:42:31;6.10;;;2.47;;
24685;SDS011;12804;51.176;4.452;2023-04-07T08:45:04;7.25;;;2.55;;
24685;SDS011;12804;51.176;4.452;2023-04-07T08:47:31;6.25;;;2.58;;
24685;SDS011;12804;51.176;4.452;2023-04-07T08:49:59;5.93;;;2.30;;
24685;SDS011;12804;51.176;4.452;2023-04-07T08:52:32;5.70;;;2.08;;
24685;SDS011;12804;51.176;4.452;2023-04-07T08:55:00;4.55;;;2.20;;
24685;SDS011;12804;51.176;4.452;2023-04-07T08:57:29;5.22;;;2.00;;
24685;SDS011;12804;51.176;4.452;2023-04-07T08:59:57;8.07;;;2.10;;
24685;SDS011;12804;51.176;4.452;2023-04-07T09:02:28;5.45;;;2.08;;
24685;SDS011;12804;51.176;4.452;2023-04-07T09:04:55;6.97;;;2.30;;
24685;SDS011;12804;51.176;4.452;2023-04-07T09:07:21;8.18;;;2.28;;
24685;SDS011;12804;51.176;4.452;2023-04-07T09:09:47;10.23;;;2.35;;
24685;SDS011;12804;51.176;4.452;2023-04-07T09:12:13;6.18;;;2.05;;
24685;SDS011;12804;51.176;4.452;2023-04-07T09:14:38;10.38;;;2.10;;
24685;SDS011;12804;51.176;4.452;2023-04-07T09:17:04;7.03;;;2.00;;
24685;SDS011;12804;51.176;4.452;2023-04-07T09:19:30;8.95;;;2.03;;
24685;SDS011;12804;51.176;4.452;2023-04-07T09:21:57;10.57;;;2.38;;
24685;SDS011;12804;51.176;4.452;2023-04-07T09:24:24;7.53;;;2.40;;
24685;SDS011;12804;51.176;4.452;2023-04-07T09:29:40;10.07;;;3.03;;
24685;SDS011;12804;51.176;4.452;2023-04-07T09:32:07;7.57;;;2.47;;
24685;SDS011;12804;51.176;4.452;2023-04-07T09:34:35;9.43;;;2.50;;
24685;SDS011;12804;51.176;4.452;2023-04-07T09:37:03;9.57;;;2.78;;
24685;SDS011;12804;51.176;4.452;2023-04-07T09:39:30;9.32;;;2.13;;
24685;SDS011;12804;51.176;4.452;2023-04-07T09:41:57;11.63;;;2.50;;
24685;SDS011;12804;51.176;4.452;2023-04-07T09:44:24;8.38;;;2.40;;
24685;SDS011;12804;51.176;4.452;2023-04-07T09:46:57;6.70;;;2.28;;
24685;SDS011;12804;51.176;4.452;2023-04-07T09:49:24;12.55;;;2.40;;
24685;SDS011;12804;51.176;4.452;2023-04-07T09:52:00;7.00;;;2.10;;
24685;SDS011;12804;51.176;4.452;2023-04-07T09:54:35;13.55;;;2.72;;
24685;SDS011;12804;51.176;4.452;2023-04-07T09:57:03;9.82;;;2.55;;
24685;SDS011;12804;51.176;4.452;2023-04-07T09:59:30;7.50;;;1.92;;
24685;SDS011;12804;51.176;4.452;2023-04-07T10:01:57;10.65;;;2.88;;
24685;SDS011;12804;51.176;4.452;2023-04-07T10:04:23;11.30;;;2.70;;
24685;SDS011;12804;51.176;4.452;2023-04-07T10:06:51;6.20;;;2.58;;
24685;SDS011;12804;51.176;4.452;2023-04-07T10:09:18;11.07;;;2.72;;
24685;SDS011;12804;51.176;4.452;2023-04-07T10:11:47;12.38;;;2.70;;
24685;SDS011;12804;51.176;4.452;2023-04-07T10:14:14;8.45;;;3.20;;
24685;SDS011;12804;51.176;4.452;2023-04-07T10:16:42;10.40;;;3.08;;
24685;SDS011;12804;51.176;4.452;2023-04-07T10:19:08;11.98;;;3.15;;
24685;SDS011;12804;51.176;4.452;2023-04-07T10:21:36;10.15;;;2.90;;
24685;SDS011;12804;51.176;4.452;2023-04-07T10:24:08;4.65;;;1.80;;
24685;SDS011;12804;51.176;4.452;2023-04-07T10:27:01;8.35;;;2.03;;
24685;SDS011;12804;51.176;4.452;2023-04-07T10:29:39;5.57;;;2.30;;
24685;SDS011;12804;51.176;4.452;2023-04-07T10:32:07;8.13;;;2.10;;
24685;SDS011;12804;51.176;4.452;2023-04-07T10:37:20;4.93;;;1.52;;
24685;SDS011;12804;51.176;4.452;2023-04-07T10:39:47;4.78;;;1.40;;
24685;SDS011;12804;51.176;4.452;2023-04-07T10:45:05;7.13;;;1.77;;
24685;SDS011;12804;51.176;4.452;2023-04-07T10:47:33;5.65;;;1.35;;
24685;SDS011;12804;51.176;4.452;2023-04-07T10:50:21;7.22;;;1.80;;
24685;SDS011;12804;51.176;4.452;2023-04-07T10:52:48;10.05;;;2.13;;
24685;SDS011;12804;51.176;4.452;2023-04-07T10:55:30;5.65;;;1.77;;
24685;SDS011;12804;51.176;4.452;2023-04-07T11:03:28;9.53;;;2.50;;
24685;SDS011;12804;51.176;4.452;2023-04-07T11:06:11;5.47;;;2.20;;
24685;SDS011;12804;51.176;4.452;2023-04-07T11:08:42;8.55;;;2.22;;
24685;SDS011;12804;51.176;4.452;2023-04-07T11:11:10;10.73;;;2.40;;
24685;SDS011;12804;51.176;4.452;2023-04-07T11:13:46;9.57;;;2.78;;
24685;SDS011;12804;51.176;4.452;2023-04-07T11:16:13;7.10;;;1.80;;
24685;SDS011;12804;51.176;4.452;2023-04-07T11:18:41;9.65;;;2.10;;
24685;SDS011;12804;51.176;4.452;2023-04-07T11:21:08;9.00;;;2.30;;
24685;SDS011;12804;51.176;4.452;2023-04-07T11:23:37;8.65;;;2.70;;
24685;SDS011;12804;51.176;4.452;2023-04-07T11:26:10;5.43;;;2.13;;
24685;SDS011;12804;51.176;4.452;2023-04-07T11:28:47;7.28;;;2.58;;
24685;SDS011;12804;51.176;4.452;2023-04-07T11:31:23;8.32;;;2.10;;
24685;SDS011;12804;51.176;4.452;2023-04-07T11:33:56;9.25;;;2.03;;
24685;SDS011;12804;51.176;4.452;2023-04-07T11:39:23;7.93;;;2.38;;
24685;SDS011;12804;51.176;4.452;2023-04-07T11:41:55;9.00;;;1.83;;
24685;SDS011;12804;51.176;4.452;2023-04-07T11:44:21;5.35;;;1.80;;
24685;SDS011;12804;51.176;4.452;2023-04-07T11:46:57;6.43;;;2.00;;
24685;SDS011;12804;51.176;4.452;2023-04-07T11:49:25;8.02;;;2.00;;
24685;SDS011;12804;51.176;4.452;2023-04-07T11:51:59;6.93;;;2.10;;
24685;SDS011;12804;51.176;4.452;2023-04-07T11:54:37;5.15;;;1.90;;
24685;SDS011;12804;51.176;4.452;2023-04-07T11:57:25;6.80;;;1.55;;
24685;SDS011;12804;51.176;4.452;2023-04-07T12:00:05;5.03;;;1.23;;
24685;SDS011;12804;51.176;4.452;2023-04-07T12:02:37;3.80;;;1.50;;
24685;SDS011;12804;51.176;4.452;2023-04-07T12:05:03;2.35;;;0.75;;
24685;SDS011;12804;51.176;4.452;2023-04-07T12:07:30;4.10;;;0.85;;
24685;SDS011;12804;51.176;4.452;2023-04-07T12:09:55;7.85;;;1.30;;
24685;SDS011;12804;51.176;4.452;2023-04-07T12:12:25;2.35;;;0.90;;
24685;SDS011;12804;51.176;4.452;2023-04-07T12:14:55;4.35;;;1.00;;
24685;SDS011;12804;51.176;4.452;2023-04-07T12:17:21;3.10;;;0.88;;
24685;SDS011;12804;51.176;4.452;2023-04-07T12:19:48;3.83;;;1.17;;
24685;SDS011;12804;51.176;4.452;2023-04-07T12:22:14;4.05;;;1.20;;
24685;SDS011;12804;51.176;4.452;2023-04-07T12:24:40;4.07;;;0.90;;
24685;SDS011;12804;51.176;4.452;2023-04-07T12:27:06;4.75;;;1.10;;
24685;SDS011;12804;51.176;4.452;2023-04-07T12:29:32;3.63;;;0.80;;
24685;SDS011;12804;51.176;4.452;2023-04-07T12:31:59;7.75;;;1.20;;
24685;SDS011;12804;51.176;4.452;2023-04-07T12:34:25;5.20;;;1.27;;
24685;SDS011;12804;51.176;4.452;2023-04-07T12:36:51;5.43;;;1.10;;
24685;SDS011;12804;51.176;4.452;2023-04-07T12:39:17;5.85;;;1.10;;
24685;SDS011;12804;51.176;4.452;2023-04-07T12:41:44;4.82;;;1.30;;
24685;SDS011;12804;51.176;4.452;2023-04-07T12:44:11;6.15;;;0.93;;
24685;SDS011;12804;51.176;4.452;2023-04-07T12:46:37;7.20;;;1.38;;
24685;SDS011;12804;51.176;4.452;2023-04-07T12:49:03;4.85;;;1.25;;
24685;SDS011;12804;51.176;4.452;2023-04-07T12:51:29;5.32;;;1.02;;
24685;SDS011;12804;51.176;4.452;2023-04-07T12:53:57;2.97;;;1.20;;
24685;SDS011;12804;51.176;4.452;2023-04-07T12:56:25;6.88;;;1.30;;
24685;SDS011;12804;51.176;4.452;2023-04-07T12:58:52;7.03;;;1.30;;
24685;SDS011;12804;51.176;4.452;2023-04-07T13:01:19;5.18;;;0.85;;
24685;SDS011;12804;51.176;4.452;2023-04-07T13:03:45;5.30;;;1.00;;
24685;SDS011;12804;51.176;4.452;2023-04-07T13:06:11;1.38;;;0.63;;
24685;SDS011;12804;51.176;4.452;2023-04-07T13:08:38;2.53;;;0.80;;
24685;SDS011;12804;51.176;4.452;2023-04-07T13:11:05;2.58;;;0.80;;
24685;SDS011;12804;51.176;4.452;2023-04-07T13:13:31;3.25;;;0.77;;
24685;SDS011;12804;51.176;4.452;2023-04-07T13:15:57;3.60;;;0.93;;
24685;SDS011;12804;51.176;4.452;2023-04-07T13:18:23;3.28;;;0.55;;
24685;SDS011;12804;51.176;4.452;2023-04-07T13:20:49;2.42;;;0.68;;
24685;SDS011;12804;51.176;4.452;2023-04-07T13:23:15;2.30;;;0.80;;
24685;SDS011;12804;51.176;4.452;2023-04-07T13:25:41;3.15;;;0.80;;
24685;SDS011;12804;51.176;4.452;2023-04-07T13:28:07;4.85;;;0.70;;
24685;SDS011;12804;51.176;4.452;2023-04-07T13:30:32;3.30;;;0.50;;
24685;SDS011;12804;51.176;4.452;2023-04-07T13:32:58;4.05;;;1.00;;
24685;SDS011;12804;51.176;4.452;2023-04-07T13:35:24;3.25;;;0.70;;
24685;SDS011;12804;51.176;4.452;2023-04-07T13:37:50;2.30;;;0.75;;
24685;SDS011;12804;51.176;4.452;2023-04-07T13:40:16;1.73;;;0.60;;
24685;SDS011;12804;51.176;4.452;2023-04-07T13:42:42;0.40;;;0.30;;
24685;SDS011;12804;51.176;4.452;2023-04-07T13:45:08;4.70;;;0.60;;
24685;SDS011;12804;51.176;4.452;2023-04-07T13:47:34;2.95;;;0.45;;
24685;SDS011;12804;51.176;4.452;2023-04-07T13:50:00;2.28;;;0.73;;
24685;SDS011;12804;51.176;4.452;2023-04-07T13:52:27;4.78;;;0.75;;
24685;SDS011;12804;51.176;4.452;2023-04-07T13:54:54;2.50;;;0.63;;
24685;SDS011;12804;51.176;4.452;2023-04-07T13:57:20;2.75;;;0.60;;
24685;SDS011;12804;51.176;4.452;2023-04-07T13:59:47;4.32;;;1.10;;
24685;SDS011;12804;51.176;4.452;2023-04-07T14:02:13;4.13;;;0.75;;
24685;SDS011;12804;51.176;4.452;2023-04-07T14:04:39;2.75;;;1.10;;
24685;SDS011;12804;51.176;4.452;2023-04-07T14:07:05;5.78;;;1.33;;
24685;SDS011;12804;51.176;4.452;2023-04-07T14:09:31;2.90;;;0.77;;
24685;SDS011;12804;51.176;4.452;2023-04-07T14:11:57;5.15;;;0.90;;
24685;SDS011;12804;51.176;4.452;2023-04-07T14:14:23;4.65;;;0.98;;
24685;SDS011;12804;51.176;4.452;2023-04-07T14:16:49;5.63;;;1.20;;
24685;SDS011;12804;51.176;4.452;2023-04-07T14:19:19;3.00;;;0.80;;
24685;SDS011;12804;51.176;4.452;2023-04-07T14:21:49;3.45;;;1.00;;
24685;SDS011;12804;51.176;4.452;2023-04-07T14:24:15;5.18;;;1.50;;
24685;SDS011;12804;51.176;4.452;2023-04-07T14:26:42;7.15;;;1.20;;
24685;SDS011;12804;51.176;4.452;2023-04-07T14:29:08;6.10;;;1.63;;
24685;SDS011;12804;51.176;4.452;2023-04-07T14:31:35;4.57;;;1.15;;
24685;SDS011;12804;51.176;4.452;2023-04-07T14:34:01;5.75;;;1.08;;
24685;SDS011;12804;51.176;4.452;2023-04-07T14:36:27;5.22;;;1.30;;
24685;SDS011;12804;51.176;4.452;2023-04-07T14:38:54;4.07;;;1.00;;
24685;SDS011;12804;51.176;4.452;2023-04-07T14:41:21;4.35;;;1.10;;
24685;SDS011;12804;51.176;4.452;2023-04-07T14:43:47;5.43;;;0.93;;
24685;SDS011;12804;51.176;4.452;2023-04-07T14:46:16;7.65;;;1.88;;
24685;SDS011;12804;51.176;4.452;2023-04-07T14:48:43;3.03;;;1.33;;
24685;SDS011;12804;51.176;4.452;2023-04-07T14:51:10;6.07;;;1.10;;
24685;SDS011;12804;51.176;4.452;2023-04-07T14:53:40;3.42;;;1.08;;
24685;SDS011;12804;51.176;4.452;2023-04-07T14:56:07;4.30;;;0.88;;
24685;SDS011;12804;51.176;4.452;2023-04-07T14:58:33;3.42;;;1.10;;
24685;SDS011;12804;51.176;4.452;2023-04-07T15:01:01;7.30;;;1.13;;
24685;SDS011;12804;51.176;4.452;2023-04-07T15:03:27;4.90;;;0.95;;
24685;SDS011;12804;51.176;4.452;2023-04-07T15:05:53;3.28;;;1.30;;